Current | Forecast
Updated: 5:45 PM CET on February 21, 2018
Observed at Papa, Hungary
Temperature -1°C
Windchill -5°C
Humidity 93%
Dew Point -2°C
Wind North at 11 km/h
Pressure 1016 hPa (Steady)
Conditions Light Snow
Visibility 2.0 kilometers
UV 0 out of 16
Clouds (FEW) : 304 m
Overcast (OVC) : 518 m
Yesterday's Maximum 1°C
Yesterday's Minimum 0°C approx.
Yesterday's Heating Degree Days 32 approx.
Sunrise6:43 AM CET
Sunset5:22 PM CET
Moon Rise9:32 AM CET
Moon Set11:28 PM CET
Moon PhaseMoon Phase
Waxing Crescent
Raw METARMETAR LHPA 211645Z 35006KT 2000 -SN BR FEW010 OVC017 M01/M02 Q1016 NOSIG RMK YLO


Monday
. High: 62° F.
Tuesday
. High: 75° F.
Wednesday
. High: 77° F.
Thursday
. High: 73° F.
Friday
. High: 66° F.
Saturday
. High: 71° F.
Sunday
. High: 80° F.
Monday
. High: 66° F.

Units: English | Metric

Find the Weather for any City, State or Zipcode, or Country:

U.S. State List | Severe Weather | Tropical Storms | Ski Conditions
United States | Canada | Central America | South America | Asia | Europe | Australia | Africa | Islands

Weather Underground

© Copyright 2018
The Weather Company, LLC